Time;durP1;ratioP1;P1;durP2;ratioP2;P2;SDS_P1;SDS_P2;PMS_P1;PMS_P2;Temp;Humidity;BMP_temperature;BMP_pressure;BME280_temperature;BME280_humidity;BME280_pressure;Samples;Min_cycle;Max_cycle;Signal;HPM_P1;HPM_P2
2022/07/14 00:00:31;;;;;;;1.13;0.40;;;21.30;50.40;;;;;;5100620;28;20025;-84
2022/07/14 00:02:57;;;;;;;0.68;0.40;;;21.40;50.20;;;;;;5083061;28;20032;-96
2022/07/14 00:05:23;;;;;;;2.45;0.40;;;21.40;50.20;;;;;;5080757;28;20072;-96
2022/07/14 00:07:48;;;;;;;5.78;0.52;;;21.40;50.10;;;;;;5081061;28;20033;-96
2022/07/14 00:10:14;;;;;;;7.13;0.47;;;21.40;50.20;;;;;;5097264;28;20028;-96
2022/07/14 00:12:40;;;;;;;1.08;0.30;;;21.40;50.90;;;;;;5072214;28;20029;-96
2022/07/14 00:15:06;;;;;;;1.00;0.40;;;21.50;51.40;;;;;;5062110;28;20048;-87
2022/07/14 00:17:32;;;;;;;1.25;0.30;;;21.40;51.20;;;;;;5055072;28;20511;-88
2022/07/14 00:19:57;;;;;;;2.40;0.40;;;21.40;51.40;;;;;;5074009;28;20059;-88
2022/07/14 00:22:23;;;;;;;0.60;0.30;;;21.40;51.20;;;;;;5074599;28;20036;-88
2022/07/14 00:24:48;;;;;;;2.58;0.43;;;21.30;51.50;;;;;;5074284;28;20020;-85
2022/07/14 00:27:14;;;;;;;0.85;0.43;;;21.30;51.50;;;;;;5074548;28;20035;-86
2022/07/14 00:29:40;;;;;;;1.38;0.30;;;21.30;51.50;;;;;;5075633;28;20224;-86
2022/07/14 00:32:09;;;;;;;1.02;0.45;;;21.30;51.70;;;;;;5054479;28;20054;-86
2022/07/14 00:34:34;;;;;;;0.70;0.30;;;21.30;51.70;;;;;;5054129;28;20032;-86
2022/07/14 00:37:00;;;;;;;0.52;0.35;;;21.30;51.70;;;;;;5053969;28;20029;-86
2022/07/14 00:39:26;;;;;;;1.70;0.40;;;21.20;52.10;;;;;;5072242;28;20407;-87
2022/07/14 00:41:52;;;;;;;2.00;0.50;;;21.20;52.50;;;;;;5071830;28;20036;-87
2022/07/14 00:44:18;;;;;;;1.02;0.30;;;21.20;52.80;;;;;;5052006;28;20035;-86
2022/07/14 00:46:43;;;;;;;0.30;0.20;;;21.10;52.70;;;;;;5051561;28;20036;-85
2022/07/14 00:49:09;;;;;;;3.35;0.38;;;21.10;52.70;;;;;;5070996;28;20024;-86
2022/07/14 00:51:35;;;;;;;3.20;0.40;;;21.10;52.60;;;;;;5052726;28;20028;-87
2022/07/14 00:54:00;;;;;;;0.50;0.30;;;21.10;52.90;;;;;;5053582;28;20028;-87
2022/07/14 00:56:26;;;;;;;2.13;0.40;;;21.00;52.90;;;;;;5053782;28;20523;-87
2022/07/14 00:58:52;;;;;;;0.75;0.40;;;21.00;53.00;;;;;;5071565;28;20024;-86
2022/07/14 01:01:18;;;;;;;2.53;0.40;;;20.90;53.10;;;;;;5071304;28;20489;-86
2022/07/14 01:03:43;;;;;;;1.58;0.30;;;20.90;53.40;;;;;;5071870;28;20396;-87
2022/07/14 01:06:09;;;;;;;2.35;0.30;;;20.80;53.60;;;;;;5053420;28;20020;-86
2022/07/14 01:08:35;;;;;;;3.13;0.40;;;20.70;54.00;;;;;;5053867;28;20036;-87
2022/07/14 01:11:00;;;;;;;1.63;0.50;;;20.60;54.00;;;;;;5053635;28;20028;-87
2022/07/14 01:13:26;;;;;;;2.22;0.40;;;20.50;54.40;;;;;;5071189;28;20036;-87
2022/07/14 01:15:51;;;;;;;0.70;0.30;;;20.50;54.60;;;;;;5053429;28;20098;-87
2022/07/14 01:18:17;;;;;;;3.75;0.40;;;20.40;54.90;;;;;;5054057;28;20394;-88
2022/07/14 01:20:43;;;;;;;2.28;0.57;;;20.40;55.20;;;;;;5073405;28;20039;-87
2022/07/14 01:23:08;;;;;;;1.30;0.50;;;20.30;55.50;;;;;;5072186;28;20108;-88
2022/07/14 01:25:34;;;;;;;0.40;0.28;;;20.20;55.80;;;;;;5071539;28;20052;-89
2022/07/14 01:28:00;;;;;;;2.70;0.68;;;20.00;56.00;;;;;;5053462;28;20032;-88
2022/07/14 01:30:26;;;;;;;2.42;0.50;;;20.00;56.30;;;;;;5053054;28;20047;-88
2022/07/14 01:32:52;;;;;;;0.77;0.30;;;19.90;56.30;;;;;;5069715;28;20032;-89
2022/07/14 01:35:18;;;;;;;0.75;0.30;;;19.90;56.60;;;;;;5060729;28;20035;-89
2022/07/14 01:37:44;;;;;;;6.50;0.45;;;19.80;56.90;;;;;;5070584;28;20090;-89
2022/07/14 01:40:10;;;;;;;1.15;0.40;;;19.70;57.60;;;;;;5071832;28;20099;-88
2022/07/14 01:42:36;;;;;;;1.23;0.30;;;19.70;57.50;;;;;;5053254;28;20028;-92
2022/07/14 01:45:02;;;;;;;3.75;0.40;;;19.60;57.70;;;;;;5053980;28;20028;-94
2022/07/14 01:47:28;;;;;;;1.27;0.40;;;19.50;57.90;;;;;;5053440;28;20029;-93
2022/07/14 01:49:54;;;;;;;0.30;0.28;;;19.50;58.10;;;;;;5053273;28;20020;-92
2022/07/14 01:52:19;;;;;;;0.60;0.40;;;19.40;57.80;;;;;;5053102;28;20035;-92
2022/07/14 01:54:45;;;;;;;0.80;0.30;;;19.30;58.00;;;;;;5053886;28;20028;-92
2022/07/14 01:57:12;;;;;;;10.13;0.60;;;19.30;58.50;;;;;;5052986;28;20136;-92
2022/07/14 01:59:38;;;;;;;1.17;0.32;;;19.30;59.20;;;;;;5052960;28;20020;-91
2022/07/14 02:02:03;;;;;;;0.93;0.38;;;19.20;58.50;;;;;;5052988;28;20055;-91
2022/07/14 02:04:29;;;;;;;1.15;0.50;;;19.20;58.20;;;;;;5057447;28;20485;-90
2022/07/14 02:06:56;;;;;;;1.42;0.30;;;19.30;57.90;;;;;;5057598;28;20028;-90
2022/07/14 02:09:22;;;;;;;0.77;0.40;;;19.30;57.80;;;;;;5057289;28;20329;-91
2022/07/14 02:14:33;;;;;;;1.95;0.38;;;19.30;57.80;;;;;;5075472;28;20087;-92
2022/07/14 02:16:59;;;;;;;0.40;0.30;;;19.30;58.30;;;;;;5057359;28;20094;-93
2022/07/14 02:19:26;;;;;;;1.55;0.60;;;19.30;58.90;;;;;;5057380;28;20502;-92
2022/07/14 02:21:53;;;;;;;0.63;0.38;;;19.20;59.40;;;;;;5056990;28;20033;-93
2022/07/14 02:24:20;;;;;;;1.75;0.47;;;19.20;60.10;;;;;;5057335;28;20020;-94
2022/07/14 02:26:46;;;;;;;3.05;0.35;;;19.10;60.60;;;;;;5057208;28;20059;-91
2022/07/14 02:29:12;;;;;;;2.33;0.30;;;19.00;60.70;;;;;;5056250;28;20044;-87
2022/07/14 02:31:38;;;;;;;1.55;0.40;;;19.00;61.70;;;;;;5056573;28;20486;-89
2022/07/14 02:34:04;;;;;;;2.15;0.50;;;19.00;61.20;;;;;;5074553;28;20790;-89
2022/07/14 02:36:30;;;;;;;4.20;0.50;;;18.90;61.30;;;;;;5074231;28;20029;-89
2022/07/14 02:38:56;;;;;;;1.00;0.50;;;18.80;61.50;;;;;;5074517;28;20640;-89
2022/07/14 02:41:22;;;;;;;0.93;0.47;;;18.80;61.70;;;;;;5074562;28;20036;-89
2022/07/14 02:43:48;;;;;;;0.65;0.47;;;18.80;61.30;;;;;;5056298;28;20028;-90
2022/07/14 02:46:14;;;;;;;1.65;0.50;;;18.80;61.40;;;;;;5074459;28;20025;-88
2022/07/14 02:48:40;;;;;;;1.70;0.77;;;18.80;61.90;;;;;;5056454;28;20027;-90
2022/07/14 02:51:07;;;;;;;1.75;0.50;;;18.80;62.30;;;;;;5056238;28;20024;-90
2022/07/14 02:53:34;;;;;;;1.15;0.60;;;18.70;61.90;;;;;;5056088;28;20028;-90
2022/07/14 02:56:04;;;;;;;5.00;0.40;;;18.70;61.40;;;;;;5056287;28;20035;-90
2022/07/14 02:58:30;;;;;;;3.35;0.60;;;18.70;61.80;;;;;;5056192;28;20017;-90
2022/07/14 03:00:56;;;;;;;0.90;0.40;;;18.70;61.70;;;;;;5056162;28;20055;-90
2022/07/14 03:03:22;;;;;;;3.50;0.88;;;18.70;62.30;;;;;;5074070;28;20024;-89
2022/07/14 03:05:48;;;;;;;2.45;0.50;;;18.70;61.70;;;;;;5056561;28;20024;-90
2022/07/14 03:08:14;;;;;;;0.95;0.47;;;18.70;61.90;;;;;;5055755;28;20028;-90
2022/07/14 03:10:41;;;;;;;2.83;0.50;;;18.70;62.10;;;;;;5056237;28;20060;-88
2022/07/14 03:13:07;;;;;;;4.32;0.68;;;18.70;62.30;;;;;;5053115;28;20087;-89
2022/07/14 03:15:33;;;;;;;2.30;0.55;;;18.70;62.00;;;;;;5054169;28;20032;-88
2022/07/14 03:17:59;;;;;;;2.83;0.75;;;18.60;62.20;;;;;;5055868;28;20016;-89
2022/07/14 03:20:25;;;;;;;3.22;0.35;;;18.60;62.00;;;;;;5057140;28;20043;-90
2022/07/14 03:22:51;;;;;;;1.08;0.52;;;18.70;62.40;;;;;;5076285;28;20400;-90
2022/07/14 03:25:17;;;;;;;2.90;0.50;;;18.60;62.20;;;;;;5093930;28;20108;-90
2022/07/14 03:27:46;;;;;;;0.90;0.50;;;18.60;62.50;;;;;;5075691;28;20118;-89
2022/07/14 03:30:12;;;;;;;0.70;0.40;;;18.60;62.80;;;;;;5076672;28;20094;-91
2022/07/14 03:32:39;;;;;;;1.42;0.40;;;18.60;62.20;;;;;;5056207;28;20106;-90
2022/07/14 03:35:07;;;;;;;6.20;0.50;;;18.60;62.60;;;;;;5060326;28;20024;-91
2022/07/14 03:37:36;;;;;;;1.23;0.50;;;18.60;62.80;;;;;;5065486;28;20033;-93
2022/07/14 03:40:04;;;;;;;1.73;0.40;;;18.60;63.00;;;;;;5074871;28;20033;-93
2022/07/14 03:42:30;;;;;;;3.13;0.50;;;18.70;63.50;;;;;;5071506;28;20482;-91
2022/07/14 03:44:55;;;;;;;2.83;0.47;;;18.80;63.00;;;;;;5066804;28;20026;-92
2022/07/14 03:47:21;;;;;;;0.80;0.40;;;19.00;61.80;;;;;;5054340;28;20500;-90
2022/07/14 03:49:47;;;;;;;2.67;0.40;;;19.10;62.20;;;;;;5053789;28;20070;-91
2022/07/14 03:52:13;;;;;;;3.10;0.90;;;19.30;62.30;;;;;;5054932;28;20446;-91
2022/07/14 03:54:42;;;;;;;3.13;0.60;;;19.40;62.50;;;;;;5055638;28;20042;-93
2022/07/14 03:57:07;;;;;;;6.53;0.68;;;19.60;62.80;;;;;;5055132;28;20024;-90
2022/07/14 03:59:39;;;;;;;1.88;0.50;;;19.70;62.90;;;;;;5055460;28;20608;-90
2022/07/14 04:02:05;;;;;;;2.78;0.60;;;19.80;62.90;;;;;;5054839;28;20509;-89
2022/07/14 04:04:31;;;;;;;3.78;0.40;;;20.00;62.60;;;;;;5054955;28;20032;-91
2022/07/14 04:06:56;;;;;;;0.60;0.40;;;20.10;62.20;;;;;;5055087;28;20033;-91
2022/07/14 04:09:22;;;;;;;1.98;0.60;;;20.40;62.00;;;;;;5065747;28;20101;-91
2022/07/14 04:11:48;;;;;;;1.17;0.65;;;20.90;61.30;;;;;;5075864;28;20097;-91
2022/07/14 04:14:14;;;;;;;2.67;0.77;;;21.60;60.30;;;;;;5075728;28;20498;-90
2022/07/14 04:16:40;;;;;;;3.75;0.50;;;22.00;58.60;;;;;;5070000;28;20105;-91
2022/07/14 04:19:06;;;;;;;0.93;0.50;;;22.20;58.60;;;;;;5054877;28;20090;-90
2022/07/14 04:21:32;;;;;;;3.83;0.50;;;22.20;59.70;;;;;;5054170;28;20047;-90
2022/07/14 04:23:57;;;;;;;1.50;0.60;;;22.10;59.00;;;;;;5054676;28;20021;-88
2022/07/14 04:26:23;;;;;;;1.45;0.60;;;22.10;58.50;;;;;;5054870;28;20082;-90
2022/07/14 04:28:49;;;;;;;6.75;0.60;;;22.20;58.50;;;;;;5072102;28;20029;-91
2022/07/14 04:31:14;;;;;;;1.08;0.50;;;22.30;58.90;;;;;;5055465;28;20053;-93
2022/07/14 04:33:40;;;;;;;34.25;31.20;;;22.40;59.50;;;;;;5054536;28;20472;-92
2022/07/14 04:36:08;;;;;;;17.63;15.80;;;22.50;59.90;;;;;;5055129;28;20028;-91
2022/07/14 04:39:08;;;;;;;7.47;3.45;;;22.60;59.90;;;;;;5058046;28;20119;-96
2022/07/14 04:41:36;;;;;;;3.30;0.80;;;22.80;60.30;;;;;;5077716;28;20051;-96
2022/07/14 04:44:02;;;;;;;1.50;0.63;;;22.90;60.40;;;;;;5077367;28;20025;-95
2022/07/14 04:46:28;;;;;;;6.95;0.90;;;23.00;60.70;;;;;;5069136;28;20021;-95
2022/07/14 04:54:22;;;;;;;2.03;0.63;;;23.50;60.70;;;;;;5063236;28;20508;-96
2022/07/14 04:56:47;;;;;;;2.28;0.70;;;23.60;59.50;;;;;;5045065;28;20025;-96
2022/07/14 04:59:14;;;;;;;5.00;0.40;;;23.60;59.00;;;;;;5060982;28;20124;-95
2022/07/14 05:01:40;;;;;;;1.55;0.40;;;23.60;59.70;;;;;;5054731;28;20037;-96
2022/07/14 05:04:06;;;;;;;2.90;0.60;;;23.70;58.50;;;;;;5064773;28;20029;-96
2022/07/14 05:06:32;;;;;;;2.90;1.05;;;23.70;58.30;;;;;;5047972;28;20036;-96
2022/07/14 05:09:04;;;;;;;5.88;0.70;;;23.60;59.40;;;;;;5065349;28;20036;-95
2022/07/14 05:11:51;;;;;;;5.93;0.90;;;23.50;59.70;;;;;;5066009;28;20025;-96
2022/07/14 05:14:18;;;;;;;6.03;0.80;;;23.40;60.20;;;;;;5084208;28;20028;-96
2022/07/14 05:16:45;;;;;;;3.05;0.68;;;23.20;61.10;;;;;;5082181;28;20063;-96
2022/07/14 05:19:46;;;;;;;2.95;0.60;;;23.20;60.90;;;;;;5068173;28;20040;-96
2022/07/14 05:22:15;;;;;;;11.52;0.73;;;23.10;60.90;;;;;;5083861;28;20028;-96
2022/07/14 05:24:41;;;;;;;3.50;0.70;;;23.00;60.40;;;;;;5048528;28;20401;-96
2022/07/14 05:27:52;;;;;;;2.67;0.60;;;23.00;61.50;;;;;;5054037;28;20041;-94
2022/07/14 05:30:18;;;;;;;5.55;0.50;;;23.00;61.60;;;;;;5078702;28;20088;-91
2022/07/14 05:32:43;;;;;;;2.92;0.70;;;22.90;61.90;;;;;;5080740;28;20031;-93
2022/07/14 05:35:09;;;;;;;5.97;0.43;;;23.00;62.40;;;;;;5081503;28;20028;-92
2022/07/14 05:37:35;;;;;;;7.78;0.65;;;23.00;61.70;;;;;;5081170;28;20013;-92
2022/07/14 05:40:00;;;;;;;9.77;0.98;;;23.10;61.70;;;;;;5080861;28;20009;-96
2022/07/14 05:42:26;;;;;;;3.00;0.70;;;23.30;62.10;;;;;;5098736;28;20024;-96
2022/07/14 05:44:52;;;;;;;11.80;0.70;;;23.50;61.30;;;;;;5098044;28;20005;-96
2022/07/14 05:47:25;;;;;;;3.00;0.60;;;23.90;60.10;;;;;;5076924;28;20020;-96
2022/07/14 05:49:50;;;;;;;1.00;0.52;;;24.10;58.50;;;;;;5054641;28;20024;-94
2022/07/14 05:52:16;;;;;;;3.72;0.80;;;24.50;57.40;;;;;;5054580;28;20230;-94
2022/07/14 05:54:42;;;;;;;1.58;0.73;;;25.00;55.50;;;;;;5054475;28;20064;-94
2022/07/14 05:57:09;;;;;;;2.75;0.65;;;25.60;52.00;;;;;;5053509;28;20024;-94
2022/07/14 05:59:35;;;;;;;3.00;0.50;;;26.50;48.30;;;;;;5034339;28;20026;-93
2022/07/14 06:02:02;;;;;;;1.02;0.45;;;27.50;44.50;;;;;;5034970;28;20037;-95
2022/07/14 06:04:28;;;;;;;0.95;0.50;;;28.70;41.90;;;;;;5033455;28;20035;-94
2022/07/14 06:06:53;;;;;;;1.95;0.60;;;30.30;39.90;;;;;;5064318;28;20404;-93
2022/07/14 06:09:19;;;;;;;0.70;0.63;;;31.80;37.50;;;;;;5053166;28;20017;-91
2022/07/14 06:11:45;;;;;;;1.25;0.60;;;32.90;35.30;;;;;;5054429;28;20050;-92
2022/07/14 06:14:11;;;;;;;1.30;0.55;;;33.80;33.80;;;;;;5053253;28;20032;-92
2022/07/14 06:16:37;;;;;;;1.52;0.55;;;34.60;32.80;;;;;;5053343;28;20021;-90
2022/07/14 06:19:03;;;;;;;8.43;0.60;;;35.50;32.80;;;;;;5053790;28;20032;-90
2022/07/14 06:21:28;;;;;;;2.13;0.60;;;36.10;30.40;;;;;;5053225;28;20119;-90
2022/07/14 06:23:54;;;;;;;1.85;0.50;;;36.90;29.60;;;;;;5052785;28;20021;-91
2022/07/14 06:26:20;;;;;;;5.25;0.50;;;37.40;29.30;;;;;;5049778;28;20020;-90
2022/07/14 06:28:46;;;;;;;2.65;0.88;;;37.90;28.40;;;;;;5051157;28;20447;-90
2022/07/14 06:31:13;;;;;;;0.85;0.50;;;38.40;27.90;;;;;;5034021;28;20045;-90
2022/07/14 06:33:39;;;;;;;1.42;0.57;;;38.70;27.40;;;;;;5030729;28;20636;-89
2022/07/14 06:36:06;;;;;;;3.25;0.52;;;39.20;26.30;;;;;;5050144;28;20032;-90
2022/07/14 06:38:33;;;;;;;5.22;0.52;;;39.40;25.90;;;;;;5035921;28;20027;-90
2022/07/14 06:40:59;;;;;;;3.05;0.50;;;39.50;25.50;;;;;;5052403;28;20037;-90
2022/07/14 06:43:24;;;;;;;3.53;0.55;;;39.40;25.30;;;;;;5052619;28;20028;-90
2022/07/14 06:45:50;;;;;;;1.15;0.60;;;38.40;25.30;;;;;;5064456;28;20035;-90
2022/07/14 06:48:15;;;;;;;3.60;0.50;;;37.70;25.60;;;;;;5056419;28;20253;-90
2022/07/14 06:50:41;;;;;;;2.67;0.50;;;37.90;25.70;;;;;;5052267;28;20451;-90
2022/07/14 06:53:08;;;;;;;3.47;0.55;;;38.50;25.50;;;;;;5054371;28;20254;-89
2022/07/14 06:55:33;;;;;;;1.90;0.57;;;39.20;25.20;;;;;;5056792;28;20021;-89
2022/07/14 06:57:59;;;;;;;2.50;0.90;;;39.70;24.50;;;;;;5056735;28;20035;-89
2022/07/14 07:00:24;;;;;;;3.10;0.50;;;39.60;24.50;;;;;;5056308;28;20127;-91
2022/07/14 07:02:50;;;;;;;3.45;0.60;;;39.60;24.60;;;;;;5056616;28;20024;-91
2022/07/14 07:08:00;;;;;;;10.48;0.70;;;40.10;24.40;;;;;;5074527;28;20043;-90
2022/07/14 07:10:27;;;;;;;6.50;0.85;;;40.40;24.20;;;;;;5055694;28;20331;-89
2022/07/14 07:12:53;;;;;;;1.23;0.50;;;40.70;24.10;;;;;;5056174;28;20033;-90
2022/07/14 07:15:19;;;;;;;5.90;0.68;;;40.90;24.20;;;;;;5055875;28;20050;-89
2022/07/14 07:17:45;;;;;;;3.55;0.60;;;40.50;24.10;;;;;;5081690;28;20084;-89
2022/07/14 07:20:11;;;;;;;1.10;0.60;;;39.90;24.60;;;;;;5071424;28;20110;-89
2022/07/14 07:22:38;;;;;;;6.00;0.88;;;38.70;25.10;;;;;;5087715;28;20531;-89
2022/07/14 07:25:06;;;;;;;7.82;0.60;;;37.70;26.00;;;;;;5055534;28;20024;-89
2022/07/14 07:27:32;;;;;;;0.98;0.40;;;36.60;27.10;;;;;;5056025;28;20039;-89
2022/07/14 07:30:00;;;;;;;1.63;0.63;;;35.90;27.70;;;;;;5073198;28;20036;-88
2022/07/14 07:32:26;;;;;;;9.73;0.60;;;35.40;27.90;;;;;;5055471;28;20036;-90
2022/07/14 07:34:51;;;;;;;2.50;0.55;;;34.80;28.30;;;;;;5041174;28;20016;-89
2022/07/14 07:37:17;;;;;;;2.63;0.75;;;34.40;28.80;;;;;;5055387;28;20039;-88
2022/07/14 07:39:43;;;;;;;6.32;0.65;;;34.20;29.40;;;;;;5055788;28;20059;-89
2022/07/14 07:42:09;;;;;;;1.33;0.50;;;34.30;29.50;;;;;;5055423;28;20067;-89
2022/07/14 07:44:36;;;;;;;4.70;0.68;;;34.50;29.50;;;;;;5055897;28;20021;-89
2022/07/14 07:47:02;;;;;;;1.80;0.50;;;35.10;29.40;;;;;;5055072;28;20029;-89
2022/07/14 07:49:28;;;;;;;3.63;0.60;;;35.70;29.30;;;;;;5055299;28;20025;-89
2022/07/14 07:52:01;;;;;;;7.30;0.60;;;36.10;28.90;;;;;;5055341;28;20021;-89
2022/07/14 07:54:28;;;;;;;5.90;0.68;;;37.00;28.80;;;;;;5055349;28;20025;-89
2022/07/14 07:56:55;;;;;;;2.85;0.65;;;37.60;28.50;;;;;;5055867;28;20097;-88
2022/07/14 07:59:21;;;;;;;6.80;0.90;;;37.70;28.20;;;;;;5054850;28;20444;-88
2022/07/14 08:01:47;;;;;;;5.28;0.60;;;38.00;28.50;;;;;;5054746;28;20044;-89
2022/07/14 08:04:14;;;;;;;2.20;1.40;;;37.80;27.90;;;;;;5054965;28;20032;-89
2022/07/14 08:06:40;;;;;;;4.35;0.50;;;37.40;28.60;;;;;;5072800;28;20024;-90
2022/07/14 08:09:10;;;;;;;3.60;0.50;;;37.30;29.00;;;;;;5063880;28;20031;-87
2022/07/14 08:11:36;;;;;;;5.03;0.60;;;37.30;29.10;;;;;;5076776;28;20032;-89
2022/07/14 08:14:02;;;;;;;2.63;0.60;;;36.90;29.20;;;;;;5051536;28;20400;-90
2022/07/14 08:16:27;;;;;;;1.23;0.50;;;36.50;29.50;;;;;;5068571;28;20024;-88
2022/07/14 08:18:53;;;;;;;0.77;0.60;;;35.80;29.80;;;;;;5054487;28;20199;-90
2022/07/14 08:21:19;;;;;;;8.82;1.55;;;35.00;30.70;;;;;;5053866;28;20496;-89
2022/07/14 08:23:44;;;;;;;2.97;0.50;;;34.60;31.00;;;;;;5054792;28;20556;-89
2022/07/14 08:26:10;;;;;;;3.30;0.90;;;34.10;31.50;;;;;;5054986;28;20120;-88
2022/07/14 08:28:36;;;;;;;2.08;0.50;;;33.70;31.90;;;;;;5054584;28;20020;-87
2022/07/14 08:31:02;;;;;;;1.40;0.43;;;33.50;32.20;;;;;;5053477;28;20040;-89
2022/07/14 08:33:27;;;;;;;3.45;1.15;;;33.10;33.00;;;;;;5054714;28;20156;-89
2022/07/14 08:35:53;;;;;;;1.52;0.40;;;32.90;33.80;;;;;;5053648;28;20032;-90
2022/07/14 08:38:19;;;;;;;8.40;0.73;;;32.80;34.00;;;;;;5051852;28;20145;-90
2022/07/14 08:40:44;;;;;;;7.80;0.82;;;32.60;33.80;;;;;;5054726;28;20453;-89
2022/07/14 08:43:11;;;;;;;1.30;0.60;;;32.40;34.10;;;;;;5056945;28;20109;-93
2022/07/14 08:45:44;;;;;;;4.47;0.73;;;32.30;34.50;;;;;;5054571;28;20064;-92
2022/07/14 08:48:10;;;;;;;1.70;0.95;;;32.20;34.80;;;;;;5054246;28;20117;-90
2022/07/14 08:50:37;;;;;;;6.57;0.75;;;32.10;35.00;;;;;;5054426;28;20039;-90
2022/07/14 08:53:03;;;;;;;5.72;0.80;;;32.00;35.00;;;;;;5053911;28;20120;-91
2022/07/14 08:55:30;;;;;;;4.88;0.60;;;31.90;35.20;;;;;;5054680;28;20063;-90
2022/07/14 08:57:56;;;;;;;7.20;0.50;;;31.80;35.20;;;;;;5053682;28;20024;-91
2022/07/14 09:00:22;;;;;;;2.65;0.65;;;31.80;35.50;;;;;;5053916;28;20036;-91
2022/07/14 09:02:55;;;;;;;2.97;0.68;;;32.00;35.20;;;;;;5053441;28;20017;-91
2022/07/14 09:05:21;;;;;;;3.03;0.60;;;32.20;34.80;;;;;;5053650;28;20063;-93
2022/07/14 09:07:56;;;;;;;3.13;0.60;;;32.50;34.70;;;;;;5054584;28;20056;-92
2022/07/14 09:10:24;;;;;;;6.25;0.77;;;33.00;34.20;;;;;;5053577;28;20056;-92
2022/07/14 09:12:50;;;;;;;3.90;0.50;;;33.70;33.80;;;;;;5071333;28;20481;-90
2022/07/14 09:18:12;;;;;;;3.92;0.50;;;34.70;32.30;;;;;;5071502;28;20032;-93
2022/07/14 09:20:38;;;;;;;6.30;1.13;;;35.10;32.10;;;;;;5071494;28;20094;-92
2022/07/14 09:23:05;;;;;;;11.60;0.70;;;35.70;31.50;;;;;;5053850;28;20124;-89
2022/07/14 09:25:34;;;;;;;3.30;0.60;;;36.40;30.90;;;;;;5053208;28;20025;-90
2022/07/14 09:28:01;;;;;;;1.10;0.57;;;37.10;30.50;;;;;;5053400;28;20322;-89
2022/07/14 09:30:28;;;;;;;4.47;0.60;;;37.70;29.60;;;;;;5056652;28;20238;-86
2022/07/14 09:32:59;;;;;;;11.02;0.60;;;38.20;29.20;;;;;;5053132;28;20032;-89
2022/07/14 09:35:36;;;;;;;3.47;0.40;;;38.60;28.70;;;;;;5053563;28;20048;-90
2022/07/14 09:38:17;;;;;;;5.47;0.88;;;38.90;28.50;;;;;;5052771;28;20100;-90
2022/07/14 09:40:44;;;;;;;0.73;0.50;;;38.90;28.20;;;;;;5053582;28;20090;-91
2022/07/14 09:43:12;;;;;;;8.02;0.82;;;39.30;27.40;;;;;;5052829;28;20020;-90
2022/07/14 09:45:45;;;;;;;2.38;0.85;;;39.20;27.70;;;;;;5053724;28;20060;-90
2022/07/14 09:48:16;;;;;;;2.35;0.75;;;39.50;27.10;;;;;;5053227;28;20123;-90
2022/07/14 09:50:43;;;;;;;3.05;1.02;;;39.90;26.80;;;;;;5053406;28;20020;-91
2022/07/14 09:53:19;;;;;;;2.53;0.50;;;40.20;26.90;;;;;;5051922;28;20127;-89
2022/07/14 09:56:03;;;;;;;6.38;0.60;;;40.30;26.40;;;;;;5050265;28;20111;-90
2022/07/14 09:58:44;;;;;;;2.20;0.47;;;40.40;26.30;;;;;;5046802;28;20376;-88
2022/07/14 10:01:14;;;;;;;7.45;1.00;;;40.50;25.60;;;;;;5070732;28;20289;-90
2022/07/14 10:03:44;;;;;;;3.38;0.60;;;39.90;25.40;;;;;;5053175;28;20043;-90
2022/07/14 10:06:11;;;;;;;1.95;0.55;;;39.10;25.70;;;;;;5052919;28;20078;-90
2022/07/14 10:08:43;;;;;;;5.22;0.50;;;38.10;25.90;;;;;;5071365;28;20013;-94
2022/07/14 10:11:10;;;;;;;2.83;0.50;;;37.10;26.70;;;;;;5033789;28;20033;-92
2022/07/14 10:13:37;;;;;;;3.80;0.60;;;36.60;27.40;;;;;;5033764;28;20477;-91
2022/07/14 10:16:03;;;;;;;1.63;0.63;;;36.00;28.40;;;;;;5066375;28;20035;-91
2022/07/14 10:18:29;;;;;;;4.20;0.50;;;35.50;28.10;;;;;;5053503;28;20028;-90
2022/07/14 10:20:58;;;;;;;5.22;0.50;;;35.10;29.00;;;;;;5052552;28;20056;-89
2022/07/14 10:23:25;;;;;;;2.25;0.68;;;34.70;28.90;;;;;;5053697;28;20032;-89
2022/07/14 10:25:56;;;;;;;9.82;0.63;;;34.60;29.30;;;;;;5057169;28;20024;-91
2022/07/14 10:28:22;;;;;;;4.57;0.40;;;34.70;29.70;;;;;;5057136;28;20035;-91
2022/07/14 10:31:06;;;;;;;6.88;0.57;;;35.10;29.50;;;;;;5056371;28;20055;-90
2022/07/14 10:34:05;;;;;;;1.85;0.60;;;35.30;29.10;;;;;;5054165;28;20037;-92
2022/07/14 10:36:53;;;;;;;1.58;0.70;;;35.60;28.80;;;;;;5000237;28;20070;-92
2022/07/14 10:39:28;;;;;;;3.20;0.80;;;35.80;28.20;;;;;;5054950;28;20373;-90
2022/07/14 10:42:08;;;;;;;3.25;0.47;;;35.90;28.60;;;;;;5057496;28;20141;-89
2022/07/14 10:44:36;;;;;;;3.85;0.45;;;36.00;28.00;;;;;;5056909;28;20025;-89
2022/07/14 10:47:16;;;;;;;0.90;0.45;;;36.10;27.80;;;;;;5056528;28;20048;-91
2022/07/14 10:50:04;;;;;;;1.65;0.50;;;36.10;27.90;;;;;;5056602;28;20510;-92
2022/07/14 10:52:32;;;;;;;7.70;0.45;;;36.00;27.70;;;;;;5056518;28;20024;-90
2022/07/14 10:55:29;;;;;;;1.95;0.65;;;35.60;27.80;;;;;;5056449;28;20412;-89
2022/07/14 10:58:01;;;;;;;4.65;0.50;;;35.20;27.90;;;;;;5076541;28;20036;-91
2022/07/14 11:00:47;;;;;;;2.88;0.60;;;34.70;28.40;;;;;;5077996;28;20025;-91
2022/07/14 11:03:19;;;;;;;;;;;34.50;28.40;;;;;;5063945;28;20036;-92
2022/07/14 11:06:03;;;;;;;4.03;0.50;;;34.20;28.90;;;;;;5076456;28;19905;-91
2022/07/14 11:08:37;;;;;;;2.80;0.50;;;34.50;29.70;;;;;;5057689;28;20029;-94
2022/07/14 11:11:08;;;;;;;5.75;0.88;;;34.70;28.90;;;;;;5063074;28;20035;-90
2022/07/14 11:13:35;;;;;;;6.43;0.60;;;34.50;28.70;;;;;;5057591;28;20044;-91
2022/07/14 11:16:03;;;;;;;2.92;1.85;;;34.50;29.60;;;;;;5057496;28;20046;-89
2022/07/14 11:18:35;;;;;;;4.90;0.85;;;34.60;29.30;;;;;;5055900;28;20029;-90
2022/07/14 11:21:17;;;;;;;2.72;0.40;;;34.70;28.70;;;;;;5073598;28;20028;-90
2022/07/14 11:23:48;;;;;;;3.67;0.40;;;34.90;28.90;;;;;;5056020;28;20051;-88
2022/07/14 11:26:34;;;;;;;1.15;0.50;;;35.00;29.00;;;;;;5056941;28;20032;-91
2022/07/14 11:29:02;;;;;;;3.13;0.50;;;35.20;27.60;;;;;;5086554;28;20036;-92
2022/07/14 11:31:41;;;;;;;2.38;0.40;;;35.30;27.70;;;;;;5073321;28;20059;-91
2022/07/14 11:37:04;;;;;;;5.82;0.50;;;35.00;27.50;;;;;;5074101;28;20462;-93
2022/07/14 11:39:35;;;;;;;0.90;0.50;;;34.80;28.00;;;;;;5074346;28;20453;-91
2022/07/14 11:42:08;;;;;;;4.15;0.63;;;34.90;28.10;;;;;;5073889;28;20044;-92
2022/07/14 11:44:36;;;;;;;3.80;0.43;;;34.90;28.20;;;;;;5055845;28;20120;-92
2022/07/14 11:47:15;;;;;;;5.50;0.50;;;34.90;28.30;;;;;;5074814;28;20029;-92
2022/07/14 11:49:51;;;;;;;7.95;0.40;;;35.00;28.30;;;;;;5076004;28;20036;-95
2022/07/14 11:52:28;;;;;;;3.30;0.70;;;35.00;28.00;;;;;;5060027;28;20028;-92
2022/07/14 11:54:55;;;;;;;8.10;0.50;;;35.00;27.30;;;;;;5073651;28;20031;-94
2022/07/14 11:57:21;;;;;;;3.30;0.68;;;35.00;27.50;;;;;;5058409;28;20052;-91
2022/07/14 11:59:47;;;;;;;1.80;0.50;;;34.90;27.50;;;;;;5059873;28;20028;-92
2022/07/14 12:02:17;;;;;;;4.00;0.50;;;34.90;27.70;;;;;;5078905;28;20051;-92
2022/07/14 12:04:54;;;;;;;6.63;0.73;;;34.90;27.60;;;;;;5082079;28;20024;-92
2022/07/14 12:07:23;;;;;;;6.38;0.55;;;34.90;27.90;;;;;;5059787;28;20027;-92
2022/07/14 12:09:49;;;;;;;15.65;1.25;;;34.90;28.70;;;;;;5056570;28;20090;-93
2022/07/14 12:12:17;;;;;;;4.38;0.68;;;35.00;27.80;;;;;;5059607;28;20032;-92
2022/07/14 12:14:53;;;;;;;3.63;0.70;;;35.10;28.30;;;;;;5072594;28;20041;-91
2022/07/14 12:17:21;;;;;;;6.32;0.50;;;35.20;28.00;;;;;;5062806;28;20064;-86
2022/07/14 12:19:48;;;;;;;6.03;0.50;;;35.30;28.00;;;;;;5055576;28;20201;-91
2022/07/14 12:22:15;;;;;;;2.40;0.57;;;35.10;27.40;;;;;;5055299;28;20033;-83
2022/07/14 12:24:41;;;;;;;2.10;0.63;;;35.20;27.80;;;;;;5056231;28;20021;-94
2022/07/14 12:27:09;;;;;;;1.30;0.52;;;35.20;27.80;;;;;;5061241;28;20035;-92
2022/07/14 12:29:45;;;;;;;3.92;0.50;;;35.30;27.70;;;;;;5084653;28;20756;-92
2022/07/14 12:32:11;;;;;;;7.13;1.30;;;35.40;27.70;;;;;;5044286;28;20643;-93
2022/07/14 12:34:37;;;;;;;4.88;0.60;;;35.50;27.40;;;;;;5057131;28;20062;-93
2022/07/14 12:37:04;;;;;;;3.63;0.60;;;35.60;27.30;;;;;;5055340;28;20033;-89
2022/07/14 12:39:31;;;;;;;2.15;0.50;;;35.50;27.00;;;;;;5054648;28;20051;-92
2022/07/14 12:41:59;;;;;;;8.30;0.50;;;35.50;27.30;;;;;;5072553;28;20176;-92
2022/07/14 12:44:25;;;;;;;3.30;0.50;;;35.50;27.40;;;;;;5050890;28;20036;-90
2022/07/14 12:47:11;;;;;;;4.63;0.60;;;35.50;28.30;;;;;;5058027;28;20028;-92
2022/07/14 12:49:48;;;;;;;2.25;0.50;;;35.60;27.50;;;;;;5054374;28;20063;-92
2022/07/14 12:52:15;;;;;;;8.90;1.25;;;35.50;27.60;;;;;;5072081;28;20093;-93
2022/07/14 12:54:42;;;;;;;3.70;0.50;;;35.40;27.60;;;;;;5050584;28;20017;-93
2022/07/14 12:57:18;;;;;;;1.65;0.63;;;35.50;27.40;;;;;;5060106;28;20110;-91
2022/07/14 12:59:44;;;;;;;0.63;0.30;;;35.50;27.60;;;;;;5016088;28;20576;-91
2022/07/14 13:02:18;;;;;;;3.75;0.55;;;35.40;27.50;;;;;;5027426;28;20061;-91
2022/07/14 13:04:49;;;;;;;2.58;0.50;;;35.30;27.40;;;;;;5043097;28;20040;-91
2022/07/14 13:07:18;;;;;;;1.63;0.55;;;35.20;27.20;;;;;;5026427;28;20041;-92